createdAt,value
2023-10-08T00:00:51.044Z,70.44
2023-10-08T00:03:19.134Z,70.47
2023-10-08T00:05:47.413Z,70.05
2023-10-08T00:08:17.955Z,69.79
2023-10-08T00:10:46.538Z,69.59
2023-10-08T00:13:16.512Z,69.46
2023-10-08T00:15:54.602Z,69.30
2023-10-08T00:18:25.052Z,69.16
2023-10-08T00:20:58.084Z,69.60
2023-10-08T00:23:27.541Z,69.39
2023-10-08T00:25:55.865Z,69.08
2023-10-08T00:28:24.005Z,69.10
2023-10-08T00:30:51.070Z,69.13
2023-10-08T00:33:18.306Z,69.05
2023-10-08T00:35:45.211Z,69.26
2023-10-08T00:38:21.681Z,69.34
2023-10-08T00:40:52.245Z,69.45
2023-10-08T00:43:36.066Z,69.51
2023-10-08T00:46:22.358Z,69.45
2023-10-08T00:48:50.328Z,69.28
2023-10-08T00:51:27.420Z,69.32
2023-10-08T00:54:18.445Z,69.11
2023-10-08T00:56:47.946Z,69.23
2023-10-08T00:59:17.769Z,69.32
2023-10-08T01:01:52.837Z,69.22
2023-10-08T01:04:27.020Z,69.37
2023-10-08T01:07:00.290Z,69.18
2023-10-08T01:09:36.796Z,69.14
2023-10-08T01:12:21.027Z,68.88
2023-10-08T01:14:49.730Z,68.47
2023-10-08T01:17:17.494Z,68.07
2023-10-08T01:19:47.091Z,67.63
2023-10-08T01:22:18.082Z,66.96
2023-10-08T01:24:45.355Z,66.61
2023-10-08T01:27:13.225Z,66.23
2023-10-08T01:29:40.876Z,65.72
2023-10-08T01:32:12.685Z,65.56
2023-10-08T01:34:40.374Z,65.32
2023-10-08T01:37:10.168Z,65.45
2023-10-08T01:39:43.822Z,65.54
2023-10-08T01:42:21.506Z,65.79
2023-10-08T01:44:50.085Z,66.00
2023-10-08T01:47:17.770Z,66.23
2023-10-08T01:49:45.848Z,66.02
2023-10-08T01:52:22.278Z,66.31
2023-10-08T01:54:49.992Z,66.35
2023-10-08T01:57:18.409Z,66.19
2023-10-08T01:59:45.634Z,66.36
2023-10-08T02:02:16.646Z,66.18
2023-10-08T02:04:45.148Z,65.82
2023-10-08T02:07:13.977Z,65.80
2023-10-08T02:09:42.120Z,65.93
2023-10-08T02:12:09.471Z,65.85
2023-10-08T02:14:36.906Z,65.79
2023-10-08T02:17:07.641Z,65.82
2023-10-08T02:19:36.094Z,65.92
2023-10-08T02:22:03.925Z,65.99
2023-10-08T02:24:31.748Z,65.30
2023-10-08T02:26:59.153Z,65.20
2023-10-08T02:29:30.985Z,65.04
2023-10-08T02:31:58.646Z,64.91
2023-10-08T02:34:25.622Z,64.86
2023-10-08T02:36:53.521Z,64.66
2023-10-08T02:39:27.134Z,64.71
2023-10-08T02:41:58.022Z,64.97
2023-10-08T02:44:24.952Z,64.95
2023-10-08T02:46:52.901Z,65.07
2023-10-08T02:49:21.480Z,65.36
2023-10-08T02:51:51.744Z,65.51
2023-10-08T02:54:19.496Z,65.56
2023-10-08T02:56:52.933Z,65.73
2023-10-08T02:59:23.701Z,65.65
2023-10-08T03:01:51.225Z,65.67
2023-10-08T03:04:20.988Z,65.45
2023-10-08T03:06:54.563Z,65.59
2023-10-08T03:09:24.475Z,65.83
2023-10-08T03:11:52.282Z,66.10
2023-10-08T03:14:23.092Z,66.32
2023-10-08T03:16:54.294Z,66.49
2023-10-08T03:19:23.597Z,66.42
2023-10-08T03:21:57.358Z,66.41
2023-10-08T03:24:36.580Z,66.68
2023-10-08T03:27:29.356Z,66.58
2023-10-08T03:29:56.296Z,66.76
2023-10-08T03:32:27.972Z,66.71
2023-10-08T03:34:55.796Z,66.71
2023-10-08T03:37:30.828Z,66.97
2023-10-08T03:40:16.260Z,67.19
2023-10-08T03:42:43.386Z,67.21
2023-10-08T03:45:13.684Z,67.08
2023-10-08T03:47:42.487Z,67.28
2023-10-08T03:50:13.057Z,67.41
2023-10-08T03:52:39.779Z,67.49
2023-10-08T03:55:28.612Z,67.53
2023-10-08T03:57:58.600Z,67.45
2023-10-08T04:00:33.384Z,67.58
2023-10-08T04:03:02.490Z,67.46
2023-10-08T04:05:34.097Z,67.16
2023-10-08T04:08:01.123Z,67.11
2023-10-08T04:10:44.636Z,66.80
2023-10-08T04:13:11.486Z,66.70
2023-10-08T04:15:44.688Z,66.73
2023-10-08T04:18:12.862Z,66.62
2023-10-08T04:20:40.426Z,66.77
2023-10-08T04:23:19.644Z,66.67
2023-10-08T04:25:48.146Z,66.52
2023-10-08T04:28:18.571Z,66.57
2023-10-08T04:30:48.853Z,66.69
2023-10-08T04:33:16.280Z,66.58
2023-10-08T04:35:56.833Z,66.58
2023-10-08T04:38:27.677Z,66.77
2023-10-08T04:40:54.636Z,66.98
2023-10-08T04:43:32.405Z,67.18
2023-10-08T04:46:00.247Z,66.90
2023-10-08T04:48:30.879Z,66.50
2023-10-08T04:51:01.256Z,66.03
2023-10-08T04:53:38.447Z,65.58
2023-10-08T04:56:07.763Z,65.59
2023-10-08T04:58:37.650Z,65.08
2023-10-08T05:01:29.545Z,64.87
2023-10-08T05:03:57.627Z,64.82
2023-10-08T05:06:34.803Z,64.68
2023-10-08T05:09:11.870Z,64.38
2023-10-08T05:11:52.261Z,64.08
2023-10-08T05:14:49.627Z,63.59
2023-10-08T05:17:19.712Z,63.42
2023-10-08T05:19:49.672Z,63.21
2023-10-08T05:22:30.531Z,63.34
2023-10-08T05:25:17.120Z,63.14
2023-10-08T05:27:48.487Z,63.21
2023-10-08T05:30:39.254Z,62.96
2023-10-08T05:33:10.044Z,63.21
2023-10-08T05:35:44.359Z,63.55
2023-10-08T05:38:45.335Z,63.53
2023-10-08T05:41:29.429Z,64.25
2023-10-08T05:44:15.577Z,63.79
2023-10-08T05:47:07.399Z,63.71
2023-10-08T05:49:34.828Z,63.44
2023-10-08T05:52:04.677Z,63.31
2023-10-08T05:54:33.029Z,63.45
2023-10-08T05:57:15.889Z,62.71
2023-10-08T06:00:14.283Z,62.18
2023-10-08T06:02:45.570Z,61.90
2023-10-08T06:05:24.257Z,61.80
2023-10-08T06:07:55.867Z,61.75
2023-10-08T06:10:32.333Z,61.31
2023-10-08T06:13:19.582Z,61.32
2023-10-08T06:15:57.362Z,61.71
2023-10-08T06:18:27.869Z,62.03
2023-10-08T06:21:09.381Z,62.22
2023-10-08T06:23:43.615Z,62.57
2023-10-08T06:26:10.670Z,62.83
2023-10-08T06:28:39.440Z,63.05
2023-10-08T06:31:17.934Z,62.73
2023-10-08T06:33:45.979Z,62.88
2023-10-08T06:36:13.581Z,63.25
2023-10-08T06:38:42.660Z,63.05
2023-10-08T06:41:20.368Z,62.70
2023-10-08T06:44:22.816Z,62.44
2023-10-08T06:46:49.897Z,62.34
2023-10-08T06:49:19.885Z,62.29
2023-10-08T06:51:46.736Z,62.25
2023-10-08T06:54:17.916Z,62.06
2023-10-08T06:56:53.859Z,61.83
2023-10-08T06:59:24.952Z,61.61
2023-10-08T07:01:52.883Z,61.43
2023-10-08T07:04:20.771Z,60.96
2023-10-08T07:06:47.886Z,60.57
2023-10-08T07:09:23.584Z,60.63
2023-10-08T07:11:56.139Z,60.87
2023-10-08T07:14:28.035Z,60.99
2023-10-08T07:17:01.540Z,61.40
2023-10-08T07:19:39.800Z,61.22
2023-10-08T07:22:29.782Z,61.76
2023-10-08T07:24:58.610Z,61.77
2023-10-08T07:27:33.597Z,61.91
2023-10-08T07:30:04.831Z,62.16
2023-10-08T07:32:31.828Z,62.23
2023-10-08T07:35:03.699Z,62.50
2023-10-08T07:37:31.403Z,63.09
2023-10-08T07:39:59.578Z,63.44
2023-10-08T07:42:27.596Z,63.77
2023-10-08T07:44:56.305Z,64.01
2023-10-08T07:47:23.148Z,63.93
2023-10-08T07:49:52.106Z,63.56
2023-10-08T07:52:19.190Z,63.55
2023-10-08T07:54:45.850Z,63.54
2023-10-08T07:57:20.510Z,63.81
2023-10-08T07:59:48.003Z,63.65
2023-10-08T08:02:18.607Z,63.51
2023-10-08T08:04:46.893Z,63.45
2023-10-08T08:07:17.421Z,63.33
2023-10-08T08:09:52.628Z,63.08
2023-10-08T08:12:22.780Z,62.91
2023-10-08T08:14:50.149Z,62.99
2023-10-08T08:17:19.453Z,62.47
2023-10-08T08:19:48.450Z,62.27
2023-10-08T08:22:32.704Z,61.61
2023-10-08T08:25:16.984Z,61.30
2023-10-08T08:27:50.635Z,61.39
2023-10-08T08:30:17.715Z,61.47
2023-10-08T08:32:53.438Z,61.44
2023-10-08T08:35:22.134Z,61.42
2023-10-08T08:37:51.118Z,61.12
2023-10-08T08:40:20.971Z,60.82
2023-10-08T08:42:53.706Z,60.45
2023-10-08T08:45:23.237Z,60.38
2023-10-08T08:47:50.666Z,60.15
2023-10-08T08:50:19.142Z,59.88
2023-10-08T08:52:47.285Z,59.35
2023-10-08T08:55:22.103Z,59.16
2023-10-08T08:57:52.278Z,58.80
2023-10-08T09:00:20.893Z,58.59
2023-10-08T09:02:50.631Z,58.44
2023-10-08T09:05:28.311Z,58.23
2023-10-08T09:08:04.882Z,57.93
2023-10-08T09:10:38.070Z,58.04
2023-10-08T09:13:08.766Z,57.74
2023-10-08T09:15:35.958Z,57.84
2023-10-08T09:18:05.291Z,57.59
2023-10-08T09:20:35.946Z,57.36
2023-10-08T09:23:13.789Z,57.00
2023-10-08T09:25:45.865Z,57.28
2023-10-08T09:28:16.466Z,56.83
2023-10-08T09:30:46.533Z,56.65
2023-10-08T09:33:14.957Z,56.85
2023-10-08T09:35:44.625Z,56.47
2023-10-08T09:38:12.872Z,56.26
2023-10-08T09:40:43.410Z,56.13
2023-10-08T09:43:13.439Z,55.99
2023-10-08T09:45:43.658Z,56.00
2023-10-08T09:48:13.672Z,56.33
2023-10-08T09:50:42.641Z,56.29
2023-10-08T09:53:21.586Z,56.51
2023-10-08T09:55:57.158Z,57.21
2023-10-08T09:58:25.826Z,57.62
2023-10-08T10:00:57.685Z,57.58
2023-10-08T10:03:27.629Z,58.03
2023-10-08T10:05:59.782Z,58.22
2023-10-08T10:08:28.412Z,58.13
2023-10-08T10:11:02.106Z,58.48
2023-10-08T10:13:30.342Z,58.64
2023-10-08T10:16:00.102Z,58.69
2023-10-08T10:18:32.710Z,59.01
2023-10-08T10:21:20.470Z,59.40
2023-10-08T10:23:55.107Z,59.69
2023-10-08T10:26:41.404Z,60.05
2023-10-08T10:29:17.564Z,60.35
2023-10-08T10:31:54.424Z,61.01
2023-10-08T10:34:23.039Z,61.22
2023-10-08T10:36:57.930Z,61.00
2023-10-08T10:39:28.544Z,60.68
2023-10-08T10:42:02.912Z,60.43
2023-10-08T10:44:31.107Z,60.67
2023-10-08T10:47:17.498Z,60.46
2023-10-08T10:49:54.236Z,60.71
2023-10-08T10:52:41.407Z,60.89
2023-10-08T10:55:18.381Z,61.09
2023-10-08T10:57:56.221Z,61.58
2023-10-08T11:00:50.529Z,61.38
2023-10-08T11:03:18.082Z,61.45
2023-10-08T11:05:49.759Z,61.55
2023-10-08T11:08:19.630Z,62.06
2023-10-08T11:10:59.712Z,62.43
2023-10-08T11:13:30.144Z,62.75
2023-10-08T11:16:00.807Z,63.02
2023-10-08T11:18:31.381Z,63.17
2023-10-08T11:21:17.778Z,63.51
2023-10-08T11:23:54.275Z,62.72
2023-10-08T11:26:33.679Z,61.88
2023-10-08T11:29:05.126Z,61.17
2023-10-08T11:31:35.212Z,60.81
2023-10-08T11:34:11.279Z,59.87
2023-10-08T11:37:04.749Z,58.91
2023-10-08T11:39:46.664Z,57.62
2023-10-08T11:42:31.913Z,57.13
2023-10-08T11:45:19.005Z,56.36
2023-10-08T11:47:46.893Z,55.95
2023-10-08T11:50:18.526Z,55.45
2023-10-08T11:52:45.908Z,55.29
2023-10-08T11:55:20.086Z,54.92
2023-10-08T11:57:51.662Z,54.69
2023-10-08T12:02:51.274Z,54.62
2023-10-08T12:05:21.534Z,54.68
2023-10-08T12:07:49.441Z,54.47
2023-10-08T12:10:23.935Z,54.52
2023-10-08T12:12:55.571Z,54.30
2023-10-08T12:15:35.394Z,54.29
2023-10-08T12:18:25.910Z,53.92
2023-10-08T12:20:55.408Z,54.28
2023-10-08T12:23:30.301Z,54.10
2023-10-08T12:25:57.519Z,54.17
2023-10-08T12:28:25.279Z,54.27
2023-10-08T12:30:57.487Z,54.56
2023-10-08T12:33:27.691Z,54.91
2023-10-08T12:35:54.783Z,55.21
2023-10-08T12:38:24.501Z,55.77
2023-10-08T12:40:54.301Z,56.45
2023-10-08T12:43:21.427Z,56.92
2023-10-08T12:45:55.716Z,57.36
2023-10-08T12:48:27.675Z,57.86
2023-10-08T12:50:59.088Z,58.18
2023-10-08T12:53:35.259Z,58.36
2023-10-08T12:56:23.230Z,58.33
2023-10-08T12:58:50.037Z,58.66
2023-10-08T13:01:19.654Z,59.04
2023-10-08T13:03:50.409Z,59.79
2023-10-08T13:06:29.595Z,60.10
2023-10-08T13:08:57.400Z,60.29
2023-10-08T13:11:26.148Z,61.22
2023-10-08T13:13:54.660Z,62.06
2023-10-08T13:16:24.550Z,62.76
2023-10-08T13:18:53.483Z,63.55
2023-10-08T13:21:26.357Z,64.26
2023-10-08T13:23:53.931Z,65.06
2023-10-08T13:26:24.001Z,65.81
2023-10-08T13:28:50.826Z,66.47
2023-10-08T13:31:18.934Z,66.80
2023-10-08T13:33:50.112Z,67.40
2023-10-08T13:36:19.743Z,67.79
2023-10-08T13:38:47.704Z,67.93
2023-10-08T13:41:18.789Z,68.13
2023-10-08T13:43:47.179Z,68.46
2023-10-08T13:46:19.042Z,68.64
2023-10-08T13:48:50.034Z,68.99
2023-10-08T13:51:22.006Z,69.42
2023-10-08T13:54:04.442Z,69.55
2023-10-08T13:56:32.550Z,69.47
2023-10-08T13:59:13.635Z,69.86
2023-10-08T14:01:47.261Z,69.79
2023-10-08T14:04:19.454Z,69.96
2023-10-08T14:06:54.353Z,70.05
2023-10-08T14:09:23.621Z,70.36
2023-10-08T14:11:54.397Z,70.52
2023-10-08T14:14:25.856Z,70.89
2023-10-08T14:17:00.875Z,71.20
2023-10-08T14:19:40.860Z,71.96
2023-10-08T14:22:10.028Z,72.35
2023-10-08T14:24:39.318Z,72.86
2023-10-08T14:27:17.773Z,73.09
2023-10-08T14:29:51.594Z,73.03
2023-10-08T14:32:18.510Z,73.22
2023-10-08T14:34:48.034Z,73.34
2023-10-08T14:37:33.546Z,73.42
2023-10-08T14:40:18.723Z,73.77
2023-10-08T14:42:59.780Z,74.03
2023-10-08T14:45:28.565Z,74.32
2023-10-08T14:47:56.608Z,74.54
2023-10-08T14:50:28.990Z,74.84
2023-10-08T14:52:56.248Z,74.91
2023-10-08T14:55:24.303Z,74.72
2023-10-08T14:57:56.899Z,74.52
2023-10-08T15:00:27.608Z,74.52
2023-10-08T15:02:55.781Z,74.42
2023-10-08T15:05:23.806Z,74.72
2023-10-08T15:07:52.514Z,74.64
2023-10-08T15:10:19.876Z,74.63
2023-10-08T15:12:46.692Z,74.33
2023-10-08T15:15:16.294Z,74.45
2023-10-08T15:17:44.842Z,74.48
2023-10-08T15:20:18.115Z,74.42
2023-10-08T15:22:46.344Z,74.53
2023-10-08T15:25:15.176Z,74.36
2023-10-08T15:27:42.923Z,74.13
2023-10-08T15:30:14.432Z,73.62
2023-10-08T15:32:41.482Z,73.32
2023-10-08T15:35:15.654Z,72.68
2023-10-08T15:37:43.445Z,72.68
2023-10-08T15:40:19.018Z,72.35
2023-10-08T15:42:54.885Z,71.95
2023-10-08T15:45:23.417Z,71.72
2023-10-08T15:47:51.642Z,71.46
2023-10-08T15:50:25.198Z,71.30
2023-10-08T15:52:52.010Z,71.09
2023-10-08T15:55:20.413Z,71.28
2023-10-08T15:57:47.123Z,70.98
2023-10-08T16:00:15.889Z,70.84
2023-10-08T16:02:44.336Z,70.85
2023-10-08T16:05:11.310Z,70.72
2023-10-08T16:07:38.108Z,70.79
2023-10-08T16:10:08.441Z,70.82
2023-10-08T16:12:37.464Z,70.81
2023-10-08T16:15:06.155Z,70.96
2023-10-08T16:17:33.067Z,70.84
2023-10-08T16:19:59.800Z,70.82
2023-10-08T16:22:26.452Z,70.81
2023-10-08T16:24:53.425Z,70.84
2023-10-08T16:27:20.450Z,71.17
2023-10-08T16:29:47.441Z,70.68
2023-10-08T16:32:14.087Z,70.76
2023-10-08T16:34:40.902Z,70.66
2023-10-08T16:37:07.583Z,70.82
2023-10-08T16:39:36.636Z,70.58
2023-10-08T16:42:05.520Z,70.42
2023-10-08T16:44:32.503Z,70.50
2023-10-08T16:46:59.145Z,70.42
2023-10-08T16:49:30.107Z,70.37
2023-10-08T16:51:57.116Z,70.18
2023-10-08T16:54:24.029Z,70.16
2023-10-08T16:56:51.005Z,70.12
2023-10-08T16:59:20.910Z,70.18
2023-10-08T17:01:47.529Z,70.05
2023-10-08T17:04:17.289Z,70.24
2023-10-08T17:06:44.070Z,70.04
2023-10-08T17:09:17.827Z,70.18
2023-10-08T17:11:46.659Z,70.04
2023-10-08T17:14:16.965Z,69.99
2023-10-08T17:16:43.684Z,70.29
2023-10-08T17:19:10.831Z,70.62
2023-10-08T17:21:37.926Z,70.65
2023-10-08T17:24:08.635Z,70.89
2023-10-08T17:26:37.591Z,71.08
2023-10-08T17:29:07.912Z,71.17
2023-10-08T17:31:40.229Z,71.05
2023-10-08T17:34:07.794Z,71.02
2023-10-08T17:36:38.415Z,71.21
2023-10-08T17:39:10.641Z,71.02
2023-10-08T17:41:37.925Z,70.93
2023-10-08T17:44:07.218Z,70.86
2023-10-08T17:46:38.809Z,71.06
2023-10-08T17:49:09.623Z,71.24
2023-10-08T17:51:36.675Z,71.14
2023-10-08T17:54:05.920Z,71.38
2023-10-08T17:56:33.252Z,71.51
2023-10-08T17:59:00.905Z,71.52
2023-10-08T18:01:27.768Z,71.64
2023-10-08T18:03:55.334Z,71.54
2023-10-08T18:06:22.884Z,71.79
2023-10-08T18:08:51.031Z,71.64
2023-10-08T18:11:23.772Z,71.89
2023-10-08T18:13:52.593Z,71.81
2023-10-08T18:16:19.501Z,71.98
2023-10-08T18:18:46.795Z,71.93
2023-10-08T18:21:18.015Z,72.15
2023-10-08T18:23:47.985Z,72.26
2023-10-08T18:26:16.298Z,72.24
2023-10-08T18:28:45.617Z,72.28
2023-10-08T18:31:17.521Z,72.42
2023-10-08T18:33:46.584Z,72.47
2023-10-08T18:36:17.073Z,72.49
2023-10-08T18:38:43.974Z,72.43
2023-10-08T18:41:16.422Z,72.11
2023-10-08T18:43:45.437Z,72.29
2023-10-08T18:46:12.700Z,72.24
2023-10-08T18:48:39.511Z,72.21
2023-10-08T18:51:09.328Z,72.05
2023-10-08T18:53:36.586Z,71.74
2023-10-08T18:56:12.348Z,71.48
2023-10-08T18:58:40.247Z,71.13
2023-10-08T19:01:08.285Z,70.99
2023-10-08T19:03:37.898Z,70.66
2023-10-08T19:06:07.179Z,70.72
2023-10-08T19:08:37.742Z,70.90
2023-10-08T19:11:12.643Z,71.04
2023-10-08T19:13:43.357Z,71.31
2023-10-08T19:16:14.209Z,71.90
2023-10-08T19:18:43.036Z,72.07
2023-10-08T19:21:15.834Z,72.15
2023-10-08T19:23:42.643Z,72.05
2023-10-08T19:26:10.370Z,72.00
2023-10-08T19:28:37.113Z,72.04
2023-10-08T19:31:12.557Z,71.76
2023-10-08T19:33:39.995Z,72.05
2023-10-08T19:36:07.230Z,72.12
2023-10-08T19:38:35.869Z,71.91
2023-10-08T19:41:02.507Z,71.81
2023-10-08T19:43:30.232Z,71.91
2023-10-08T19:45:58.646Z,71.75
2023-10-08T19:48:25.734Z,72.06
2023-10-08T19:50:54.982Z,71.95
2023-10-08T19:53:21.895Z,71.72
2023-10-08T19:55:52.450Z,71.61
2023-10-08T19:58:20.890Z,71.66
2023-10-08T20:00:53.353Z,71.23
2023-10-08T20:03:21.451Z,71.23
2023-10-08T20:05:51.531Z,71.16
2023-10-08T20:08:18.256Z,70.99
2023-10-08T20:10:45.701Z,70.85
2023-10-08T20:13:13.688Z,70.83
2023-10-08T20:15:40.419Z,70.76
2023-10-08T20:18:07.525Z,70.65
2023-10-08T20:20:36.690Z,70.64
2023-10-08T20:23:03.873Z,70.58
2023-10-08T20:25:35.019Z,70.60
2023-10-08T20:28:01.697Z,70.47
2023-10-08T20:30:29.091Z,70.28
2023-10-08T20:32:56.007Z,70.24
2023-10-08T20:35:28.284Z,70.23
2023-10-08T20:37:58.580Z,70.05
2023-10-08T20:40:30.393Z,70.15
2023-10-08T20:42:57.566Z,70.00
2023-10-08T20:45:28.469Z,69.89
2023-10-08T20:48:00.008Z,69.79
2023-10-08T20:50:33.292Z,69.65
2023-10-08T20:53:02.458Z,69.44
2023-10-08T20:55:35.136Z,69.42
2023-10-08T20:58:02.847Z,69.57
2023-10-08T21:00:35.787Z,69.61
2023-10-08T21:03:09.396Z,69.65
2023-10-08T21:05:39.841Z,69.63
2023-10-08T21:08:07.627Z,69.91
2023-10-08T21:10:44.509Z,69.82
2023-10-08T21:13:16.084Z,69.76
2023-10-08T21:15:44.189Z,69.72
2023-10-08T21:18:10.964Z,69.69
2023-10-08T21:20:40.786Z,69.59
2023-10-08T21:23:07.482Z,69.45
2023-10-08T21:25:34.516Z,69.55
2023-10-08T21:28:02.066Z,69.52
2023-10-08T21:30:29.622Z,69.25
2023-10-08T21:32:57.511Z,69.43
2023-10-08T21:35:25.212Z,69.45
2023-10-08T21:37:53.259Z,69.47
2023-10-08T21:40:21.918Z,69.72
2023-10-08T21:42:52.885Z,69.51
2023-10-08T21:45:20.598Z,69.38
2023-10-08T21:47:49.290Z,69.56
2023-10-08T21:50:18.671Z,69.49
2023-10-08T21:52:48.291Z,69.35
2023-10-08T21:55:19.742Z,69.37
2023-10-08T21:57:48.686Z,69.39
2023-10-08T22:00:24.931Z,69.33
2023-10-08T22:02:58.003Z,69.20
2023-10-08T22:05:26.157Z,69.20
2023-10-08T22:07:52.766Z,69.16
2023-10-08T22:10:23.218Z,69.08
2023-10-08T22:12:54.942Z,69.23
2023-10-08T22:15:29.287Z,69.31
2023-10-08T22:18:03.131Z,69.11
2023-10-08T22:20:40.006Z,69.09
2023-10-08T22:23:09.091Z,68.85
2023-10-08T22:25:40.022Z,69.06
2023-10-08T22:28:19.494Z,69.08
2023-10-08T22:30:51.385Z,68.88
2023-10-08T22:33:35.091Z,69.21
2023-10-08T22:36:06.451Z,69.34
2023-10-08T22:38:33.369Z,69.25
2023-10-08T22:41:00.411Z,69.12
2023-10-08T22:43:32.672Z,69.01
2023-10-08T22:46:03.067Z,69.18
2023-10-08T22:48:36.927Z,69.16
2023-10-08T22:51:04.266Z,69.57
2023-10-08T22:53:31.951Z,69.07
2023-10-08T22:56:01.814Z,69.20
2023-10-08T22:58:30.564Z,69.22
2023-10-08T23:00:58.577Z,69.44
2023-10-08T23:03:26.520Z,69.35
2023-10-08T23:05:53.805Z,69.46
2023-10-08T23:08:22.033Z,69.20
2023-10-08T23:10:49.060Z,69.23
2023-10-08T23:13:16.412Z,69.42
2023-10-08T23:15:44.541Z,69.37
2023-10-08T23:18:14.258Z,69.55
2023-10-08T23:20:45.576Z,69.59
2023-10-08T23:23:12.558Z,69.67
2023-10-08T23:25:39.696Z,69.66
2023-10-08T23:28:06.751Z,69.48
2023-10-08T23:30:34.315Z,69.83
2023-10-08T23:33:02.126Z,70.00
2023-10-08T23:35:29.081Z,70.17
2023-10-08T23:38:07.368Z,70.33
2023-10-08T23:40:45.757Z,70.39
2023-10-08T23:43:17.320Z,70.15
2023-10-08T23:45:56.685Z,70.17
2023-10-08T23:48:24.078Z,70.04
2023-10-08T23:50:55.073Z,70.38
2023-10-08T23:53:29.175Z,70.21
2023-10-08T23:56:05.371Z,70.29
2023-10-08T23:58:39.103Z,70.03
